Time;durP1;ratioP1;P1;durP2;ratioP2;P2;SDS_P1;SDS_P2;PMS_P1;PMS_P2;Temp;Humidity;BMP_temperature;BMP_pressure;BME280_temperature;BME280_humidity;BME280_pressure;Samples;Min_cycle;Max_cycle;Signal;HPM_P1;HPM_P2
2022/05/22 04:01:56;;;;;;;9.37;5.20;;;9.90;96.30;;;;;;5262289;23;20867;-78
2022/05/22 04:04:21;;;;;;;10.53;5.30;;;9.90;96.30;;;;;;4955938;28;20506;-78
2022/05/22 04:06:47;;;;;;;9.80;4.23;;;10.00;96.30;;;;;;4956011;28;20861;-76
2022/05/22 04:09:12;;;;;;;7.17;4.70;;;9.90;96.30;;;;;;4955310;28;20230;-78
2022/05/22 04:11:40;;;;;;;13.60;5.07;;;9.90;96.30;;;;;;4955766;28;20552;-77
2022/05/22 04:14:05;;;;;;;9.80;5.27;;;9.90;96.30;;;;;;4955735;28;20182;-76
2022/05/22 04:16:31;;;;;;;6.63;4.40;;;9.90;96.30;;;;;;4955688;28;20463;-77
2022/05/22 04:18:56;;;;;;;12.13;4.80;;;9.90;96.30;;;;;;4956729;28;20173;-73
2022/05/22 04:29:08;;;;;;;9.00;4.93;;;10.20;96.30;;;;;;5259098;23;20492;-77
2022/05/22 04:31:33;;;;;;;8.70;4.77;;;10.40;96.30;;;;;;4974684;28;20437;-77
2022/05/22 04:33:59;;;;;;;9.30;5.10;;;10.50;96.30;;;;;;4974612;28;20670;-77
2022/05/22 04:36:24;;;;;;;8.77;5.43;;;10.60;96.30;;;;;;4974533;28;20205;-77
2022/05/22 04:38:50;;;;;;;8.60;5.97;;;10.80;96.30;;;;;;4973979;28;20178;-76
2022/05/22 04:41:17;;;;;;;7.87;5.10;;;11.20;96.30;;;;;;4974409;28;20201;-78
2022/05/22 04:43:43;;;;;;;7.60;5.10;;;12.00;96.30;;;;;;4974402;28;20225;-78
2022/05/22 04:46:08;;;;;;;7.53;4.07;;;12.70;96.30;;;;;;4974423;28;20422;-76
2022/05/22 04:48:34;;;;;;;10.13;4.47;;;12.70;96.30;;;;;;4973754;28;20174;-78
2022/05/22 04:51:00;;;;;;;6.50;3.70;;;12.70;96.30;;;;;;4956914;28;20206;-78
2022/05/22 04:53:27;;;;;;;7.63;4.40;;;12.60;96.30;;;;;;4957066;28;20505;-78
2022/05/22 04:55:52;;;;;;;9.53;4.50;;;12.40;96.30;;;;;;4973741;28;20413;-76
2022/05/22 04:58:19;;;;;;;6.77;4.40;;;12.00;96.30;;;;;;4956154;28;21008;-77
2022/05/22 05:00:45;;;;;;;9.87;5.00;;;11.90;96.30;;;;;;4956795;28;20194;-76
2022/05/22 05:03:11;;;;;;;9.47;4.20;;;11.80;96.30;;;;;;4974122;28;20414;-78
2022/05/22 05:05:37;;;;;;;7.33;4.43;;;11.70;96.30;;;;;;4956781;28;20460;-75
2022/05/22 05:08:03;;;;;;;8.10;4.53;;;11.60;96.30;;;;;;4973418;28;20662;-77
2022/05/22 05:10:29;;;;;;;10.47;4.63;;;11.60;96.30;;;;;;4956358;28;20673;-77
2022/05/22 05:12:54;;;;;;;14.07;3.93;;;11.80;96.30;;;;;;4973906;28;20437;-77
2022/05/22 05:15:21;;;;;;;5.93;4.00;;;12.00;96.30;;;;;;4973867;28;20192;-78
2022/05/22 05:17:48;;;;;;;12.80;4.83;;;12.30;96.30;;;;;;4955861;28;20210;-78
2022/05/22 05:20:17;;;;;;;9.30;4.50;;;12.70;96.30;;;;;;4973743;28;20775;-77
2022/05/22 05:22:43;;;;;;;11.90;4.30;;;13.30;96.30;;;;;;4973855;28;20418;-78
2022/05/22 05:25:10;;;;;;;8.33;3.63;;;14.30;96.30;;;;;;4970803;28;20453;-79
2022/05/22 05:27:35;;;;;;;11.50;3.73;;;15.80;96.30;;;;;;4963741;28;20453;-77
2022/05/22 05:30:01;;;;;;;5.83;3.40;;;17.10;96.30;;;;;;4961935;28;20466;-78
2022/05/22 05:32:26;;;;;;;9.47;3.50;;;18.40;96.30;;;;;;4945195;28;20198;-78
2022/05/22 05:35:00;;;;;;;5.57;3.07;;;19.50;95.20;;;;;;4964298;28;20206;-78
2022/05/22 05:37:26;;;;;;;11.10;3.90;;;19.70;93.80;;;;;;4962945;28;20568;-79
2022/05/22 05:39:52;;;;;;;6.70;3.13;;;19.50;93.60;;;;;;4970328;28;20434;-78
2022/05/22 05:42:18;;;;;;;6.80;3.20;;;20.10;94.10;;;;;;4955759;28;20209;-79
2022/05/22 05:44:44;;;;;;;6.80;2.73;;;21.20;90.80;;;;;;4955823;28;20418;-78
2022/05/22 05:47:10;;;;;;;4.93;2.73;;;22.20;87.40;;;;;;4973188;28;20749;-77
2022/05/22 05:49:37;;;;;;;10.63;3.30;;;22.50;85.10;;;;;;4973047;28;20174;-78
2022/05/22 05:52:03;;;;;;;6.53;3.40;;;22.80;82.90;;;;;;4973204;28;20436;-77
2022/05/22 05:54:29;;;;;;;7.43;3.20;;;22.80;84.00;;;;;;4973354;28;20472;-78
2022/05/22 05:56:55;;;;;;;4.23;2.80;;;23.20;82.50;;;;;;4973249;28;20460;-78
2022/05/22 05:59:20;;;;;;;8.40;2.97;;;23.90;81.60;;;;;;4972834;28;20179;-79
2022/05/22 06:01:46;;;;;;;6.47;2.70;;;24.80;78.90;;;;;;4973239;28;20217;-78
2022/05/22 06:04:11;;;;;;;6.30;2.70;;;24.30;80.40;;;;;;4973296;28;20653;-78
2022/05/22 06:06:37;;;;;;;9.53;2.87;;;23.90;79.20;;;;;;4973212;28;20333;-78
2022/05/22 06:09:02;;;;;;;6.40;2.80;;;23.40;80.60;;;;;;4968141;28;20209;-74
2022/05/22 06:11:28;;;;;;;7.87;3.37;;;23.00;81.20;;;;;;4957901;29;20241;-75
2022/05/22 06:13:54;;;;;;;9.10;2.57;;;21.70;85.50;;;;;;4956116;29;20182;-76
2022/05/22 06:16:20;;;;;;;7.67;2.53;;;21.90;87.20;;;;;;4957195;29;20244;-75
2022/05/22 06:18:45;;;;;;;7.40;2.90;;;22.60;83.20;;;;;;4957367;28;20489;-74
2022/05/22 06:21:14;;;;;;;6.17;3.00;;;23.00;80.10;;;;;;4959420;28;20744;-75
2022/05/22 06:23:39;;;;;;;6.50;2.47;;;23.90;82.10;;;;;;4976872;28;20180;-75
2022/05/22 06:26:09;;;;;;;6.37;3.03;;;24.50;79.30;;;;;;4975396;28;20417;-74
2022/05/22 06:28:35;;;;;;;9.27;2.30;;;24.40;79.10;;;;;;4976138;28;20542;-74
2022/05/22 06:31:01;;;;;;;9.67;2.60;;;23.90;77.90;;;;;;4976523;28;20437;-74
2022/05/22 06:33:27;;;;;;;6.00;2.53;;;23.10;80.70;;;;;;4976670;28;20181;-75
2022/05/22 06:35:52;;;;;;;5.37;2.20;;;22.30;82.10;;;;;;4976419;28;20935;-75
2022/05/22 06:41:06;;;;;;;7.40;2.10;;;22.70;85.20;;;;;;4976879;28;20208;-75
2022/05/22 06:43:32;;;;;;;4.97;2.10;;;22.60;84.00;;;;;;4976489;28;20409;-75
2022/05/22 06:45:57;;;;;;;9.83;2.63;;;22.80;80.80;;;;;;4976372;28;20936;-75
2022/05/22 06:48:23;;;;;;;9.90;2.67;;;23.10;80.80;;;;;;4975641;28;20186;-76
2022/05/22 06:50:49;;;;;;;9.80;2.40;;;23.30;79.40;;;;;;4958400;28;20202;-78
2022/05/22 06:53:15;;;;;;;5.67;2.50;;;23.50;83.20;;;;;;4976456;28;20176;-78
2022/05/22 06:55:40;;;;;;;6.27;2.23;;;24.20;81.80;;;;;;4961056;28;20456;-74
2022/05/22 06:58:06;;;;;;;6.97;2.50;;;23.80;78.10;;;;;;4974107;28;20204;-75
2022/05/22 07:00:32;;;;;;;6.13;1.77;;;22.00;83.20;;;;;;4976351;28;20198;-75
2022/05/22 07:02:57;;;;;;;7.80;2.70;;;20.80;87.10;;;;;;4976287;28;20410;-75
2022/05/22 07:05:23;;;;;;;7.03;2.60;;;19.90;88.40;;;;;;4976332;28;20179;-78
2022/05/22 07:07:49;;;;;;;5.07;2.50;;;18.90;93.50;;;;;;4958470;28;20174;-74
2022/05/22 07:10:15;;;;;;;9.60;2.70;;;18.80;92.90;;;;;;4976300;28;20201;-74
2022/05/22 07:12:41;;;;;;;6.70;2.53;;;18.40;94.50;;;;;;4976292;28;20762;-74
2022/05/22 07:15:07;;;;;;;4.53;2.40;;;18.20;95.80;;;;;;4976173;28;20170;-75
2022/05/22 07:17:33;;;;;;;8.53;3.00;;;19.30;95.30;;;;;;4975131;28;20202;-75
2022/05/22 07:19:59;;;;;;;6.53;2.63;;;19.80;89.10;;;;;;4975350;28;20814;-75
2022/05/22 07:22:25;;;;;;;8.10;2.67;;;20.60;90.80;;;;;;4958606;28;20787;-75
2022/05/22 07:24:52;;;;;;;6.00;2.87;;;20.60;89.30;;;;;;4976075;28;20416;-74
2022/05/22 07:27:18;;;;;;;8.10;2.57;;;19.90;92.00;;;;;;4958530;28;20183;-75
2022/05/22 07:29:44;;;;;;;6.60;2.50;;;19.20;95.60;;;;;;4975235;28;20436;-75
2022/05/22 07:32:10;;;;;;;8.07;2.70;;;18.70;95.30;;;;;;4966008;28;20962;-74
2022/05/22 07:34:36;;;;;;;8.07;3.50;;;19.30;96.30;;;;;;4941466;28;20697;-74
2022/05/22 07:37:06;;;;;;;7.17;2.90;;;21.00;88.40;;;;;;4975726;28;20284;-74
2022/05/22 07:39:32;;;;;;;8.77;3.40;;;22.50;83.30;;;;;;4975383;28;20422;-74
2022/05/22 07:41:58;;;;;;;5.80;2.47;;;22.60;80.70;;;;;;4967862;28;20517;-75
2022/05/22 07:44:23;;;;;;;9.13;2.53;;;23.30;81.50;;;;;;4956324;29;20214;-74
2022/05/22 07:46:49;;;;;;;8.10;3.50;;;22.80;79.20;;;;;;4956301;29;20266;-74
2022/05/22 07:52:09;;;;;;;9.70;3.10;;;19.90;87.80;;;;;;4955222;28;20459;-79
2022/05/22 07:54:37;;;;;;;7.67;3.20;;;19.20;88.50;;;;;;4954555;28;20422;-78
2022/05/22 07:57:03;;;;;;;9.20;2.83;;;18.50;94.40;;;;;;4956283;28;20457;-78
2022/05/22 07:59:29;;;;;;;6.40;3.40;;;18.20;94.20;;;;;;4955465;28;20772;-76
2022/05/22 08:01:55;;;;;;;7.50;3.03;;;17.70;96.30;;;;;;4957973;28;21047;-77
2022/05/22 08:04:20;;;;;;;5.43;3.00;;;17.40;96.30;;;;;;4958229;28;20197;-77
2022/05/22 08:06:46;;;;;;;18.63;3.33;;;18.80;96.30;;;;;;4937958;28;20895;-77
2022/05/22 08:09:11;;;;;;;7.87;2.70;;;19.90;96.00;;;;;;4955027;28;20274;-78
2022/05/22 08:11:37;;;;;;;9.13;2.80;;;20.70;90.30;;;;;;4952392;28;20199;-76
2022/05/22 08:14:03;;;;;;;10.97;3.00;;;20.80;85.70;;;;;;4956659;28;20847;-78
2022/05/22 08:16:28;;;;;;;7.87;2.70;;;20.70;87.70;;;;;;4938543;29;20218;-78
2022/05/22 08:18:53;;;;;;;8.07;2.80;;;20.80;86.70;;;;;;4954680;28;20179;-77
2022/05/22 08:21:19;;;;;;;7.40;2.47;;;19.50;86.20;;;;;;4955621;29;20226;-75
2022/05/22 08:23:45;;;;;;;6.67;2.20;;;19.20;90.50;;;;;;4955642;29;20230;-75
2022/05/22 08:26:10;;;;;;;9.53;2.63;;;19.80;89.80;;;;;;4955489;29;20226;-75
2022/05/22 08:28:36;;;;;;;4.23;2.17;;;20.60;88.10;;;;;;4955089;29;20205;-77
2022/05/22 08:31:03;;;;;;;5.03;2.20;;;21.70;87.30;;;;;;4954572;28;20562;-77
2022/05/22 08:33:28;;;;;;;10.17;2.60;;;23.40;84.10;;;;;;4958912;28;20175;-77
2022/05/22 08:35:54;;;;;;;3.97;1.90;;;24.40;81.90;;;;;;4974750;28;20417;-76
2022/05/22 08:38:19;;;;;;;5.63;2.50;;;24.80;78.60;;;;;;4975151;28;20255;-77
2022/05/22 08:40:53;;;;;;;5.20;2.27;;;23.50;77.00;;;;;;4974558;28;20226;-77
2022/05/22 08:43:34;;;;;;;6.27;2.80;;;21.70;80.40;;;;;;4974626;28;20625;-76
2022/05/22 08:46:12;;;;;;;10.53;2.63;;;21.10;82.30;;;;;;4974818;28;20406;-75
2022/05/22 08:48:57;;;;;;;5.37;2.30;;;20.80;83.50;;;;;;4974026;28;20429;-75
2022/05/22 08:51:41;;;;;;;8.87;2.40;;;19.00;87.00;;;;;;4974320;28;20437;-77
2022/05/22 08:54:25;;;;;;;6.57;2.70;;;18.90;90.70;;;;;;4974527;28;20445;-77
2022/05/22 08:59:39;;;;;;;8.43;2.90;;;20.10;85.10;;;;;;4974442;28;20429;-76
2022/05/22 09:02:16;;;;;;;6.53;2.10;;;19.20;87.30;;;;;;4974275;28;20430;-75
2022/05/22 09:05:09;;;;;;;4.57;2.37;;;18.40;88.10;;;;;;4974300;28;20470;-75
2022/05/22 09:08:06;;;;;;;10.30;2.20;;;19.10;92.80;;;;;;4963880;28;20437;-75
2022/05/22 09:10:49;;;;;;;9.03;2.07;;;19.80;85.00;;;;;;4973978;28;20508;-78
2022/05/22 09:13:30;;;;;;;6.33;2.53;;;21.00;88.10;;;;;;4974202;28;20807;-75
2022/05/22 09:16:29;;;;;;;6.50;2.40;;;20.80;84.40;;;;;;4974057;28;20446;-78
2022/05/22 09:19:07;;;;;;;6.13;2.20;;;19.80;85.00;;;;;;4967079;28;20972;-76
2022/05/22 09:21:50;;;;;;;4.20;2.10;;;19.30;87.90;;;;;;4973786;28;20461;-78
2022/05/22 09:24:47;;;;;;;4.20;1.93;;;19.80;83.60;;;;;;4973617;28;20822;-75
2022/05/22 09:27:24;;;;;;;4.10;1.73;;;20.20;83.20;;;;;;4954835;28;20428;-76
2022/05/22 09:30:06;;;;;;;5.80;2.00;;;21.20;90.20;;;;;;4973479;28;20398;-76
2022/05/22 09:32:44;;;;;;;7.23;2.13;;;22.60;79.40;;;;;;4973550;28;21101;-76
2022/05/22 09:35:29;;;;;;;7.03;3.10;;;22.60;83.40;;;;;;4973672;28;20398;-75
2022/05/22 09:38:12;;;;;;;6.60;2.20;;;23.60;79.20;;;;;;4972747;28;20853;-75
2022/05/22 09:40:49;;;;;;;6.60;2.20;;;22.60;77.40;;;;;;4973381;28;20438;-75
2022/05/22 09:43:46;;;;;;;8.30;2.20;;;21.80;78.40;;;;;;4973392;28;20406;-75
2022/05/22 09:46:49;;;;;;;9.63;2.60;;;20.60;82.30;;;;;;4973540;28;20386;-75
2022/05/22 09:49:39;;;;;;;5.60;2.57;;;19.40;84.30;;;;;;4973181;28;20445;-74
2022/05/22 09:52:38;;;;;;;6.00;2.03;;;18.90;88.80;;;;;;4973453;28;20435;-74
2022/05/22 09:55:09;;;;;;;5.13;1.90;;;20.10;79.60;;;;;;4973504;28;20402;-76
2022/05/22 09:58:12;;;;;;;8.93;2.50;;;21.00;80.80;;;;;;4972995;28;20973;-78
2022/05/22 10:01:04;;;;;;;4.77;1.80;;;21.00;79.40;;;;;;4973290;28;20437;-77
2022/05/22 10:03:45;;;;;;;6.93;1.47;;;20.30;82.40;;;;;;4973368;28;20412;-77
2022/05/22 10:06:36;;;;;;;7.70;1.80;;;20.50;81.00;;;;;;4973271;28;20414;-77
2022/05/22 10:09:27;;;;;;;6.40;1.50;;;20.60;80.80;;;;;;4972947;28;20441;-77
2022/05/22 10:11:52;;;;;;;5.20;1.80;;;20.10;78.20;;;;;;4973237;28;20562;-78
2022/05/22 10:14:56;;;;;;;4.40;2.30;;;21.30;81.20;;;;;;4956021;28;20413;-77
2022/05/22 10:17:48;;;;;;;3.00;1.60;;;21.40;84.60;;;;;;4973278;28;20233;-78
2022/05/22 10:20:42;;;;;;;6.63;2.07;;;21.80;80.20;;;;;;4963973;28;20789;-78
2022/05/22 10:23:32;;;;;;;3.70;1.40;;;22.20;84.90;;;;;;4972840;28;20439;-78
2022/05/22 10:26:15;;;;;;;6.07;2.13;;;22.40;76.60;;;;;;4972750;28;20406;-77
2022/05/22 10:28:52;;;;;;;4.17;1.83;;;21.90;76.40;;;;;;4973462;28;20429;-75
2022/05/22 10:56:28;;;;;;;6.03;2.30;;;22.10;84.90;;;;;;4901537;29;20469;-76
2022/05/22 10:59:01;;;;;;;5.30;1.60;;;23.10;77.80;;;;;;4909771;29;20447;-76
2022/05/22 11:01:29;;;;;;;4.57;1.70;;;22.80;74.20;;;;;;4937781;29;20431;-76
2022/05/22 11:04:17;;;;;;;8.77;2.10;;;22.20;77.90;;;;;;4938098;29;20446;-75
2022/05/22 11:06:58;;;;;;;5.30;1.80;;;22.00;78.70;;;;;;4937939;29;20402;-76
2022/05/22 11:09:33;;;;;;;3.93;1.80;;;21.50;77.50;;;;;;4937598;29;20415;-76
2022/05/22 11:12:12;;;;;;;10.40;2.83;;;21.40;78.60;;;;;;4937745;29;20463;-76
2022/05/22 11:14:38;;;;;;;3.00;1.80;;;22.40;84.70;;;;;;4952600;29;20430;-77
2022/05/22 11:17:22;;;;;;;4.07;1.60;;;22.80;74.40;;;;;;4957167;28;20458;-77
2022/05/22 11:19:53;;;;;;;7.03;1.73;;;22.30;79.10;;;;;;4956552;28;20503;-77
2022/05/22 11:22:41;;;;;;;4.57;1.83;;;21.90;78.40;;;;;;4952274;28;20438;-77
2022/05/22 11:25:33;;;;;;;6.07;1.70;;;21.70;77.40;;;;;;4940869;28;20447;-77
2022/05/22 11:28:20;;;;;;;4.73;1.87;;;21.50;78.50;;;;;;4944259;29;20453;-75
2022/05/22 11:31:04;;;;;;;8.70;1.90;;;21.80;77.70;;;;;;4973737;28;20453;-75
2022/05/22 11:34:02;;;;;;;4.80;1.93;;;21.30;77.50;;;;;;4963532;28;20422;-76
2022/05/22 11:37:02;;;;;;;5.67;2.30;;;21.30;79.90;;;;;;4956782;28;20424;-76
2022/05/22 11:39:48;;;;;;;3.87;1.97;;;21.90;79.20;;;;;;4950169;29;20439;-76
2022/05/22 11:42:26;;;;;;;7.23;2.03;;;22.40;78.50;;;;;;4946468;29;20435;-76
2022/05/22 11:45:00;;;;;;;4.63;1.73;;;21.80;79.00;;;;;;4942037;29;20414;-76
2022/05/22 11:47:35;;;;;;;3.80;1.77;;;21.80;77.90;;;;;;4942899;29;20425;-77
2022/05/22 11:50:19;;;;;;;4.60;2.00;;;22.30;79.20;;;;;;4941587;29;20478;-76
2022/05/22 11:53:23;;;;;;;5.23;2.10;;;22.00;75.80;;;;;;4936890;29;20439;-76
2022/05/22 11:56:03;;;;;;;6.33;2.40;;;21.70;77.80;;;;;;4937084;29;20438;-77
2022/05/22 11:59:02;;;;;;;11.23;2.37;;;21.30;76.20;;;;;;4938818;29;21172;-76
2022/05/22 12:01:42;;;;;;;4.97;2.30;;;21.60;80.60;;;;;;4947439;29;20434;-76
2022/05/22 12:04:35;;;;;;;4.63;2.00;;;22.20;74.80;;;;;;4947055;29;20446;-76
2022/05/22 12:07:19;;;;;;;4.47;2.00;;;21.90;76.10;;;;;;4950838;29;20473;-76
2022/05/22 12:10:09;;;;;;;9.40;2.00;;;21.50;78.40;;;;;;4954784;29;20419;-75
2022/05/22 12:12:44;;;;;;;5.43;2.07;;;20.90;82.30;;;;;;4955136;28;20844;-76
2022/05/22 12:15:31;;;;;;;5.20;1.80;;;21.00;82.80;;;;;;4955108;28;20418;-76
2022/05/22 12:18:13;;;;;;;3.30;2.10;;;22.00;79.40;;;;;;4946961;29;20471;-76
2022/05/22 12:21:00;;;;;;;7.20;2.60;;;21.60;77.00;;;;;;4935118;29;20442;-76
2022/05/22 12:23:31;;;;;;;4.13;1.70;;;21.50;80.40;;;;;;4936048;29;20959;-76
2022/05/22 12:26:03;;;;;;;5.17;2.40;;;21.70;79.00;;;;;;4935945;29;20422;-76
2022/05/22 12:28:46;;;;;;;4.70;2.20;;;21.00;78.90;;;;;;4937321;29;20975;-76
2022/05/22 12:31:18;;;;;;;5.60;2.70;;;21.80;84.50;;;;;;4937098;29;20935;-76
2022/05/22 12:33:43;;;;;;;7.43;2.20;;;22.90;76.80;;;;;;4936406;29;20424;-76
2022/05/22 12:36:10;;;;;;;6.27;2.27;;;22.80;76.80;;;;;;4935038;29;20423;-76
2022/05/22 12:38:44;;;;;;;4.10;1.60;;;22.40;76.30;;;;;;4935924;29;20298;-76
2022/05/22 12:41:44;;;;;;;3.50;2.00;;;22.30;79.30;;;;;;4936188;29;20486;-77
2022/05/22 12:44:09;;;;;;;5.07;1.57;;;22.40;84.00;;;;;;4904619;29;20470;-76
2022/05/22 12:46:37;;;;;;;6.97;1.87;;;23.30;78.10;;;;;;4938247;29;20831;-77
2022/05/22 12:49:25;;;;;;;7.30;2.47;;;22.10;76.50;;;;;;4942967;29;20172;-77
2022/05/22 12:52:02;;;;;;;7.57;1.80;;;21.10;80.60;;;;;;4937021;29;20450;-76
2022/05/22 12:54:30;;;;;;;6.90;2.47;;;21.20;82.40;;;;;;4942121;29;20903;-75
2022/05/22 12:57:13;;;;;;;7.70;3.13;;;21.10;79.20;;;;;;4954703;29;20463;-76
2022/05/22 13:00:08;;;;;;;5.13;1.80;;;21.40;81.10;;;;;;4939754;29;20442;-77
2022/05/22 13:02:39;;;;;;;4.43;1.80;;;21.40;78.40;;;;;;4940903;29;20914;-76
2022/05/22 13:05:15;;;;;;;7.13;2.47;;;21.40;79.40;;;;;;4945027;29;20426;-76
2022/05/22 13:07:42;;;;;;;4.53;2.37;;;21.90;80.80;;;;;;4934967;29;20471;-76
2022/05/22 13:10:19;;;;;;;8.63;2.67;;;21.80;77.60;;;;;;4935600;29;20419;-76
2022/05/22 13:12:49;;;;;;;6.87;2.20;;;21.70;77.40;;;;;;4939064;29;20430;-75
2022/05/22 13:15:16;;;;;;;4.20;1.90;;;21.80;79.40;;;;;;4943524;29;20418;-75
2022/05/22 13:17:50;;;;;;;8.67;2.03;;;22.20;79.80;;;;;;4947549;28;20521;-77
2022/05/22 13:20:42;;;;;;;12.23;2.53;;;22.50;79.20;;;;;;4938342;29;20494;-77
2022/05/22 13:23:21;;;;;;;4.00;1.63;;;22.80;78.70;;;;;;4935458;29;20479;-77
2022/05/22 13:25:53;;;;;;;3.10;1.50;;;22.60;77.30;;;;;;4935314;29;20498;-76
2022/05/22 13:28:27;;;;;;;4.23;2.20;;;22.60;76.30;;;;;;4940959;29;21185;-74
2022/05/22 13:31:11;;;;;;;13.73;2.23;;;22.30;78.40;;;;;;4951938;29;20453;-74
2022/05/22 13:33:47;;;;;;;3.90;2.20;;;22.10;78.50;;;;;;4941008;29;20506;-75
2022/05/22 13:36:25;;;;;;;3.43;1.90;;;22.20;78.90;;;;;;4942004;28;20851;-74
2022/05/22 13:39:03;;;;;;;11.90;2.00;;;21.40;76.50;;;;;;4949899;29;20428;-75
2022/05/22 13:41:55;;;;;;;5.80;2.77;;;20.40;80.20;;;;;;4934902;29;20435;-73
2022/05/22 13:44:45;;;;;;;6.00;2.40;;;20.60;83.60;;;;;;4935209;29;20419;-76
2022/05/22 13:47:58;;;;;;;6.93;2.63;;;21.20;81.40;;;;;;4935050;29;20411;-75
2022/05/22 13:53:40;;;;;;;4.00;1.97;;;22.70;76.40;;;;;;4934712;29;20568;-75
2022/05/22 13:56:06;;;;;;;4.50;2.10;;;22.70;76.10;;;;;;4934845;29;20423;-76
2022/05/22 13:58:38;;;;;;;9.47;2.03;;;22.00;75.30;;;;;;4947028;29;20466;-74
2022/05/22 14:01:17;;;;;;;8.50;1.80;;;20.90;77.50;;;;;;4954039;28;20249;-75
2022/05/22 14:03:51;;;;;;;5.27;1.50;;;20.20;80.60;;;;;;4954162;28;20410;-75
2022/05/22 14:06:21;;;;;;;3.50;1.50;;;20.00;81.60;;;;;;4947121;28;20408;-75
2022/05/22 14:08:53;;;;;;;7.77;2.00;;;19.90;81.50;;;;;;4934329;29;20430;-75
2022/05/22 14:11:34;;;;;;;3.30;1.60;;;19.80;83.00;;;;;;4934946;29;20547;-75
2022/05/22 14:14:07;;;;;;;2.60;1.70;;;19.60;83.30;;;;;;4933745;29;20419;-75
2022/05/22 14:16:40;;;;;;;7.03;2.27;;;19.70;82.90;;;;;;4934942;29;20855;-75
2022/05/22 14:19:11;;;;;;;4.53;2.13;;;19.40;81.80;;;;;;4934576;29;20418;-75
2022/05/22 14:21:40;;;;;;;7.30;1.97;;;20.10;82.90;;;;;;4934837;29;20467;-75
2022/05/22 14:27:06;;;;;;;4.67;2.00;;;20.50;80.70;;;;;;4948762;29;20461;-74
2022/05/22 14:29:33;;;;;;;4.43;1.70;;;21.00;80.60;;;;;;4946352;28;20781;-74
2022/05/22 14:31:58;;;;;;;6.30;1.90;;;21.20;80.60;;;;;;4947351;28;20435;-75
2022/05/22 14:34:29;;;;;;;5.07;2.20;;;21.80;79.40;;;;;;4949890;29;20430;-77
2022/05/22 14:36:58;;;;;;;3.47;1.70;;;21.80;79.10;;;;;;4946447;28;20206;-75
2022/05/22 14:39:24;;;;;;;3.77;1.80;;;22.20;75.90;;;;;;4941092;28;20474;-75
2022/05/22 14:41:51;;;;;;;2.43;1.73;;;22.00;77.20;;;;;;4957037;29;20438;-76
2022/05/22 14:44:22;;;;;;;6.77;1.80;;;21.70;77.70;;;;;;4948740;29;20233;-75
2022/05/22 14:46:57;;;;;;;3.23;2.00;;;21.60;80.00;;;;;;4939332;29;20446;-75
2022/05/22 14:49:38;;;;;;;4.03;1.80;;;21.10;79.00;;;;;;4939062;29;20422;-74
2022/05/22 14:52:13;;;;;;;5.40;1.90;;;20.10;80.30;;;;;;4939826;29;20477;-77
2022/05/22 14:54:49;;;;;;;5.80;2.00;;;19.80;84.50;;;;;;4946947;29;20429;-74
2022/05/22 14:57:39;;;;;;;2.97;1.97;;;19.90;82.50;;;;;;4948860;28;20657;-74
2022/05/22 15:00:18;;;;;;;2.50;1.70;;;20.30;83.40;;;;;;4951076;28;20429;-74
2022/05/22 15:02:49;;;;;;;6.10;2.30;;;20.30;79.80;;;;;;4957168;28;20418;-75
2022/05/22 15:05:18;;;;;;;7.07;2.23;;;20.50;80.50;;;;;;4957016;29;20406;-74
2022/05/22 15:08:02;;;;;;;3.80;2.10;;;20.20;81.30;;;;;;4956856;28;20854;-75
2022/05/22 15:10:28;;;;;;;11.93;2.03;;;20.00;79.50;;;;;;4956886;28;20446;-74
2022/05/22 15:12:54;;;;;;;8.43;1.53;;;20.50;81.30;;;;;;4957089;29;20410;-75
2022/05/22 15:15:36;;;;;;;9.53;1.73;;;20.90;81.00;;;;;;4957041;28;20725;-76
2022/05/22 15:18:15;;;;;;;5.40;1.60;;;21.00;80.50;;;;;;4943832;29;20461;-75
2022/05/22 15:20:41;;;;;;;6.17;2.10;;;20.80;78.10;;;;;;4947243;29;20441;-75
2022/05/22 15:26:14;;;;;;;4.57;2.17;;;20.30;80.40;;;;;;4950930;29;20567;-75
2022/05/22 15:28:39;;;;;;;8.93;1.73;;;20.00;80.50;;;;;;4945259;29;20948;-76
2022/05/22 15:31:05;;;;;;;4.93;2.13;;;19.90;81.50;;;;;;4949183;29;20514;-76
2022/05/22 15:33:52;;;;;;;4.43;1.80;;;20.00;79.70;;;;;;4942629;29;20184;-77
2022/05/22 15:36:29;;;;;;;5.17;2.50;;;20.20;79.60;;;;;;4939460;29;20656;-77
2022/05/22 15:39:06;;;;;;;4.83;2.00;;;20.30;78.70;;;;;;4950978;28;20764;-77
2022/05/22 15:41:34;;;;;;;6.47;1.80;;;20.40;82.40;;;;;;4936888;29;20482;-77
2022/05/22 15:44:15;;;;;;;2.90;1.80;;;20.70;81.20;;;;;;4947628;29;20421;-78
2022/05/22 15:47:16;;;;;;;7.43;2.27;;;20.90;82.30;;;;;;4956157;29;20405;-78
2022/05/22 15:52:40;;;;;;;5.03;1.80;;;21.60;78.60;;;;;;4956085;29;20989;-77
2022/05/22 15:55:06;;;;;;;4.40;1.80;;;21.30;78.50;;;;;;4956295;29;20450;-78
2022/05/22 15:57:31;;;;;;;11.53;2.43;;;20.90;78.00;;;;;;4959932;29;20207;-78
2022/05/22 15:59:57;;;;;;;4.17;2.10;;;20.90;80.70;;;;;;4956496;29;20254;-79
2022/05/22 16:02:28;;;;;;;4.20;1.83;;;21.00;76.90;;;;;;4953345;29;20222;-78
2022/05/22 16:04:54;;;;;;;6.03;2.30;;;20.60;79.50;;;;;;4944932;29;20825;-79
2022/05/22 16:07:19;;;;;;;4.80;2.00;;;20.40;80.40;;;;;;4946192;29;20466;-79
2022/05/22 16:09:45;;;;;;;7.00;1.70;;;20.10;79.50;;;;;;4953853;29;20174;-79
2022/05/22 16:12:12;;;;;;;4.50;1.97;;;20.00;80.40;;;;;;4948117;28;20566;-79
2022/05/22 16:14:41;;;;;;;2.53;1.53;;;20.00;80.20;;;;;;4940979;29;20179;-79
2022/05/22 16:17:09;;;;;;;5.13;2.20;;;19.90;79.60;;;;;;4955655;28;20481;-77
2022/05/22 16:19:39;;;;;;;4.80;1.43;;;20.00;80.30;;;;;;4940006;28;20425;-77
2022/05/22 16:22:05;;;;;;;3.33;1.80;;;20.50;81.70;;;;;;4940475;28;20475;-77
2022/05/22 16:24:32;;;;;;;2.70;1.60;;;20.50;79.60;;;;;;4943863;28;21028;-77
2022/05/22 16:26:58;;;;;;;4.03;2.10;;;20.60;81.10;;;;;;4951080;29;20414;-77
2022/05/22 16:29:23;;;;;;;4.93;2.07;;;20.60;79.50;;;;;;4952986;29;20513;-78
2022/05/22 16:31:50;;;;;;;3.40;1.50;;;20.60;80.30;;;;;;4941831;29;20206;-79
2022/05/22 16:34:21;;;;;;;6.87;1.93;;;20.60;79.60;;;;;;4945686;29;20183;-79
2022/05/22 16:36:46;;;;;;;2.23;1.60;;;20.50;80.10;;;;;;4943042;29;20796;-76
2022/05/22 16:39:12;;;;;;;3.80;1.90;;;20.50;79.90;;;;;;4951632;29;20414;-75
2022/05/22 16:41:38;;;;;;;2.40;1.43;;;20.30;81.10;;;;;;4935718;29;20664;-76
2022/05/22 16:44:04;;;;;;;4.43;1.73;;;20.10;79.10;;;;;;4943294;29;20179;-76
2022/05/22 16:46:30;;;;;;;5.57;1.90;;;19.80;81.30;;;;;;4935570;29;20175;-74
2022/05/22 16:59:26;;;;;;;3.70;2.03;;;18.50;84.90;;;;;;5349770;23;20489;-77
2022/05/22 17:01:53;;;;;;;7.03;2.87;;;18.40;86.50;;;;;;4945784;29;20898;-77
2022/05/22 17:04:24;;;;;;;4.00;1.70;;;18.40;86.00;;;;;;4953748;29;20175;-77
2022/05/22 17:06:56;;;;;;;4.90;1.93;;;18.30;86.30;;;;;;4951127;29;20553;-77
2022/05/22 17:09:25;;;;;;;5.33;1.60;;;18.40;87.10;;;;;;4953593;29;20430;-76
2022/05/22 17:11:57;;;;;;;3.00;1.57;;;18.40;86.20;;;;;;4954010;29;20419;-77
2022/05/22 17:14:28;;;;;;;3.17;1.57;;;18.50;85.00;;;;;;4954586;29;20406;-77
2022/05/22 17:16:56;;;;;;;2.93;1.30;;;18.70;86.10;;;;;;4955009;29;20457;-77
2022/05/22 17:19:24;;;;;;;2.40;1.47;;;18.70;86.70;;;;;;4948578;29;20465;-77
2022/05/22 17:22:09;;;;;;;2.73;1.87;;;18.60;85.10;;;;;;4937350;29;20429;-77
2022/05/22 17:25:07;;;;;;;4.00;1.77;;;18.60;86.40;;;;;;4954610;29;20407;-77
2022/05/22 17:27:37;;;;;;;3.30;1.20;;;18.50;87.60;;;;;;4949627;29;20431;-77
2022/05/22 17:30:03;;;;;;;4.40;1.97;;;18.40;86.20;;;;;;4953929;29;20439;-77
2022/05/22 17:32:29;;;;;;;3.10;1.43;;;18.40;86.50;;;;;;4954664;29;20446;-77
2022/05/22 17:34:54;;;;;;;3.60;1.50;;;18.30;88.80;;;;;;4954175;29;20519;-77
2022/05/22 17:37:27;;;;;;;7.97;2.07;;;18.10;89.50;;;;;;4951523;28;20223;-77
2022/05/22 17:39:54;;;;;;;5.60;1.97;;;18.10;89.20;;;;;;4952158;29;20202;-77
2022/05/22 17:42:21;;;;;;;2.90;1.23;;;18.00;87.80;;;;;;4953938;29;20426;-76
2022/05/22 17:44:47;;;;;;;3.90;1.40;;;17.90;91.80;;;;;;4953612;29;20414;-76
2022/05/22 17:47:14;;;;;;;5.87;1.83;;;17.80;90.80;;;;;;4953865;29;20763;-76
2022/05/22 17:49:40;;;;;;;3.40;1.90;;;17.80;89.30;;;;;;4953421;29;20846;-77
2022/05/22 17:52:08;;;;;;;3.90;1.33;;;17.60;88.60;;;;;;4954208;29;20429;-77
2022/05/22 17:54:35;;;;;;;4.13;1.77;;;17.60;88.80;;;;;;4954102;29;20430;-78
2022/05/22 17:57:01;;;;;;;4.60;1.83;;;17.30;90.70;;;;;;4953603;29;20529;-77
2022/05/22 17:59:26;;;;;;;3.30;1.73;;;17.00;91.10;;;;;;4935773;29;20550;-77
2022/05/22 18:01:54;;;;;;;2.67;1.70;;;16.80;92.00;;;;;;4952158;29;20863;-76
2022/05/22 18:04:19;;;;;;;5.27;2.00;;;16.80;93.50;;;;;;4934902;29;20168;-77
2022/05/22 18:06:46;;;;;;;3.70;1.90;;;16.70;94.90;;;;;;4934374;29;20414;-76
2022/05/22 18:09:17;;;;;;;5.73;1.63;;;16.50;95.70;;;;;;4940974;29;20602;-76
2022/05/22 18:17:11;;;;;;;6.87;1.33;;;16.20;96.30;;;;;;4953928;29;20905;-76
2022/05/22 18:19:36;;;;;;;3.27;2.40;;;16.00;96.30;;;;;;4953169;29;20517;-76
2022/05/22 18:22:08;;;;;;;1.93;1.37;;;15.80;96.30;;;;;;4953676;29;20199;-77
2022/05/22 18:27:20;;;;;;;5.90;1.40;;;15.30;96.30;;;;;;4955029;29;21162;-77